createdAt,value
2023-01-29T00:01:41.958Z,7.30
2023-01-29T00:04:09.584Z,7.17
2023-01-29T00:06:37.094Z,7.57
2023-01-29T00:09:04.476Z,6.43
2023-01-29T00:11:32.693Z,8.07
2023-01-29T00:14:00.276Z,8.00
2023-01-29T00:16:27.884Z,9.07
2023-01-29T00:18:55.222Z,7.93
2023-01-29T00:21:22.813Z,8.73
2023-01-29T00:23:50.420Z,8.47
2023-01-29T00:26:17.894Z,8.17
2023-01-29T00:28:45.038Z,8.83
2023-01-29T00:31:18.576Z,9.73
2023-01-29T00:33:46.483Z,9.83
2023-01-29T00:36:14.819Z,10.00
2023-01-29T00:38:42.536Z,10.17
2023-01-29T00:41:30.149Z,10.20
2023-01-29T00:44:33.476Z,11.93
2023-01-29T00:47:00.864Z,12.10
2023-01-29T00:49:28.302Z,10.67
2023-01-29T00:52:14.891Z,12.43
2023-01-29T00:54:42.072Z,12.00
2023-01-29T00:57:09.392Z,12.97
2023-01-29T00:59:36.857Z,13.30
2023-01-29T01:02:22.713Z,13.20
2023-01-29T01:04:50.423Z,13.70
2023-01-29T01:07:17.993Z,14.27
2023-01-29T01:10:08.638Z,12.77
2023-01-29T01:12:36.099Z,12.40
2023-01-29T01:15:03.304Z,13.70
2023-01-29T01:17:30.745Z,14.10
2023-01-29T01:19:58.137Z,13.47
2023-01-29T01:22:25.424Z,14.67
2023-01-29T01:24:52.876Z,12.83
2023-01-29T01:27:20.216Z,14.43
2023-01-29T01:29:47.706Z,14.20
2023-01-29T01:32:16.394Z,13.90
2023-01-29T01:34:45.661Z,14.40
2023-01-29T01:37:13.123Z,13.50
2023-01-29T01:39:40.543Z,14.53
2023-01-29T01:42:13.243Z,15.00
2023-01-29T01:45:01.707Z,14.57
2023-01-29T01:47:47.337Z,13.73
2023-01-29T01:50:25.526Z,14.20
2023-01-29T01:52:56.072Z,14.50
2023-01-29T01:55:25.697Z,15.53
2023-01-29T01:57:56.114Z,16.03
2023-01-29T02:00:23.562Z,16.10
2023-01-29T02:03:09.545Z,15.03
2023-01-29T02:05:55.502Z,15.63
2023-01-29T02:08:49.452Z,14.73
2023-01-29T02:11:17.332Z,13.40
2023-01-29T02:13:44.721Z,13.70
2023-01-29T02:16:12.279Z,14.57
2023-01-29T02:18:40.232Z,14.63
2023-01-29T02:21:26.062Z,13.87
2023-01-29T02:24:21.074Z,14.10
2023-01-29T02:26:55.129Z,14.23
2023-01-29T02:29:35.642Z,14.73
2023-01-29T02:32:54.876Z,13.50
2023-01-29T02:35:32.311Z,13.80
2023-01-29T02:38:11.990Z,14.07
2023-01-29T02:40:44.453Z,13.83
2023-01-29T02:43:36.989Z,14.07
2023-01-29T02:46:17.456Z,13.73
2023-01-29T02:49:15.102Z,12.93
2023-01-29T02:51:56.363Z,13.13
2023-01-29T02:54:36.222Z,13.73
2023-01-29T02:57:16.520Z,13.77
2023-01-29T02:59:47.402Z,13.40
2023-01-29T03:02:17.440Z,15.47
2023-01-29T03:04:47.534Z,14.57
2023-01-29T03:07:38.495Z,13.83
2023-01-29T03:10:09.681Z,15.63
2023-01-29T03:12:37.056Z,15.30
2023-01-29T03:15:12.324Z,13.87
2023-01-29T03:17:50.981Z,15.73
2023-01-29T03:20:21.103Z,14.50
2023-01-29T03:22:51.664Z,13.67
2023-01-29T03:25:38.920Z,14.33
2023-01-29T03:28:24.945Z,14.87
2023-01-29T03:31:14.666Z,14.20
2023-01-29T03:33:52.762Z,15.80
2023-01-29T03:36:23.857Z,15.00
2023-01-29T03:38:50.979Z,16.53
2023-01-29T03:41:31.987Z,15.17
2023-01-29T03:44:02.298Z,14.93
2023-01-29T03:46:58.569Z,15.93
2023-01-29T03:49:33.352Z,15.73
2023-01-29T03:52:12.576Z,15.77
2023-01-29T03:54:55.166Z,15.20
2023-01-29T03:57:45.997Z,14.70
2023-01-29T04:00:35.500Z,13.30
2023-01-29T04:03:17.095Z,15.23
2023-01-29T04:06:10.259Z,15.43
2023-01-29T04:08:54.144Z,15.10
2023-01-29T04:11:21.756Z,15.60
2023-01-29T04:13:49.035Z,14.80
2023-01-29T04:16:28.149Z,17.13
2023-01-29T04:18:55.815Z,16.33
2023-01-29T04:21:23.267Z,14.73
2023-01-29T04:23:50.877Z,23.23
2023-01-29T04:26:42.877Z,16.90
2023-01-29T04:29:20.227Z,17.97
2023-01-29T04:32:00.676Z,17.10
2023-01-29T04:34:56.579Z,16.57
2023-01-29T04:37:29.386Z,14.77
2023-01-29T04:40:00.845Z,15.93
2023-01-29T04:42:37.654Z,14.80
2023-01-29T04:45:14.120Z,15.17
2023-01-29T04:48:06.995Z,15.60
2023-01-29T04:50:54.938Z,14.63
2023-01-29T04:53:52.873Z,13.50
2023-01-29T04:56:42.550Z,13.47
2023-01-29T04:59:15.134Z,15.27
2023-01-29T05:01:42.662Z,15.83
2023-01-29T05:04:12.535Z,14.10
2023-01-29T05:06:39.922Z,16.33
2023-01-29T05:09:08.057Z,16.83
2023-01-29T05:11:35.442Z,16.43
2023-01-29T05:14:04.546Z,16.30
2023-01-29T05:16:55.341Z,18.13
2023-01-29T05:19:22.870Z,16.30
2023-01-29T05:21:50.222Z,17.83
2023-01-29T05:24:25.185Z,15.83
2023-01-29T05:27:12.080Z,15.27
2023-01-29T05:29:45.825Z,14.20
2023-01-29T05:32:13.163Z,14.47
2023-01-29T05:34:40.507Z,14.40
2023-01-29T05:37:08.174Z,14.27
2023-01-29T05:39:35.692Z,14.27
2023-01-29T05:42:03.110Z,16.57
2023-01-29T05:44:31.177Z,15.30
2023-01-29T05:46:58.534Z,14.80
2023-01-29T05:49:25.879Z,16.47
2023-01-29T05:51:53.320Z,16.20
2023-01-29T05:54:21.165Z,15.17
2023-01-29T05:56:48.661Z,15.60
2023-01-29T05:59:16.808Z,15.70
2023-01-29T06:01:44.392Z,16.23
2023-01-29T06:04:11.813Z,16.23
2023-01-29T06:06:39.165Z,15.73
2023-01-29T06:09:06.433Z,16.03
2023-01-29T06:11:33.906Z,15.67
2023-01-29T06:14:01.253Z,15.83
2023-01-29T06:16:28.631Z,16.83
2023-01-29T06:18:56.046Z,17.27
2023-01-29T06:21:23.693Z,15.67
2023-01-29T06:23:54.159Z,17.60
2023-01-29T06:26:21.576Z,16.37
2023-01-29T06:28:52.259Z,16.23
2023-01-29T06:31:36.965Z,15.40
2023-01-29T06:34:06.208Z,17.27
2023-01-29T06:36:33.578Z,17.30
2023-01-29T06:39:00.868Z,18.30
2023-01-29T06:41:28.928Z,17.33
2023-01-29T06:43:56.292Z,15.50
2023-01-29T06:46:23.706Z,17.80
2023-01-29T06:48:51.518Z,16.03
2023-01-29T06:51:19.105Z,15.63
2023-01-29T06:53:46.971Z,16.07
2023-01-29T06:56:14.432Z,15.07
2023-01-29T06:58:43.964Z,14.33
2023-01-29T07:01:17.583Z,15.13
2023-01-29T07:03:53.170Z,16.60
2023-01-29T07:06:20.777Z,15.50
2023-01-29T07:08:47.986Z,16.13
2023-01-29T07:11:15.346Z,14.30
2023-01-29T07:13:42.639Z,14.93
2023-01-29T07:16:10.698Z,11.70
2023-01-29T07:18:38.221Z,11.70
2023-01-29T07:21:07.139Z,11.50
2023-01-29T07:23:35.234Z,11.73
2023-01-29T07:26:06.827Z,12.37
2023-01-29T07:28:40.631Z,11.60
2023-01-29T07:31:08.195Z,9.70
2023-01-29T07:33:35.565Z,8.97
2023-01-29T07:36:03.199Z,7.90
2023-01-29T07:38:30.821Z,9.27
2023-01-29T07:40:58.328Z,9.93
2023-01-29T07:43:25.647Z,9.03
2023-01-29T07:45:53.270Z,8.73
2023-01-29T07:48:20.733Z,9.20
2023-01-29T07:50:55.603Z,8.77
2023-01-29T07:53:23.027Z,9.47
2023-01-29T07:55:50.486Z,8.67
2023-01-29T07:58:17.967Z,8.80
2023-01-29T08:00:45.426Z,7.13
2023-01-29T08:03:18.209Z,7.43
2023-01-29T08:05:45.729Z,8.23
2023-01-29T08:08:13.249Z,7.63
2023-01-29T08:10:40.881Z,6.90
2023-01-29T08:13:08.376Z,6.27
2023-01-29T08:18:23.340Z,5.77
2023-01-29T08:20:52.161Z,5.80
2023-01-29T08:23:20.201Z,5.57
2023-01-29T08:25:47.603Z,6.13
2023-01-29T08:28:14.848Z,5.70
2023-01-29T08:30:42.378Z,9.67
2023-01-29T08:33:10.017Z,13.23
2023-01-29T08:35:37.654Z,5.87
2023-01-29T08:38:05.423Z,5.50
2023-01-29T08:40:34.156Z,6.93
2023-01-29T08:43:07.818Z,5.87
2023-01-29T08:45:37.817Z,4.07
2023-01-29T08:48:05.580Z,5.33
2023-01-29T08:50:35.188Z,4.60
2023-01-29T08:53:08.228Z,5.60
2023-01-29T08:55:40.013Z,5.33
2023-01-29T08:58:11.559Z,6.00
2023-01-29T09:00:39.290Z,6.00
2023-01-29T09:03:08.174Z,6.70
2023-01-29T09:05:36.706Z,6.50
2023-01-29T09:08:04.550Z,4.90
2023-01-29T09:10:32.309Z,5.27
2023-01-29T09:12:59.877Z,4.40
2023-01-29T09:15:27.352Z,4.23
2023-01-29T09:17:54.781Z,5.40
2023-01-29T09:20:22.438Z,5.43
2023-01-29T09:22:52.289Z,5.23
2023-01-29T09:25:19.915Z,4.80
2023-01-29T09:27:47.369Z,5.50
2023-01-29T09:30:15.066Z,5.00
2023-01-29T09:32:53.676Z,4.13
2023-01-29T09:35:25.258Z,6.37
2023-01-29T09:37:52.875Z,4.37
2023-01-29T09:40:52.421Z,4.37
2023-01-29T09:43:25.742Z,4.33
2023-01-29T09:45:58.794Z,4.27
2023-01-29T09:48:27.827Z,4.23
2023-01-29T09:50:55.509Z,4.83
2023-01-29T09:53:35.158Z,3.83
2023-01-29T09:56:31.387Z,4.07
2023-01-29T09:59:02.124Z,4.10
2023-01-29T10:01:56.135Z,4.73
2023-01-29T10:04:52.940Z,5.27
2023-01-29T10:07:42.192Z,4.37
2023-01-29T10:10:15.553Z,4.40
2023-01-29T10:13:20.370Z,4.73
2023-01-29T10:16:19.079Z,4.03
2023-01-29T10:19:26.511Z,4.40
2023-01-29T10:22:05.944Z,3.80
2023-01-29T10:24:39.662Z,3.73
2023-01-29T10:27:28.051Z,3.80
2023-01-29T10:29:55.359Z,3.53
2023-01-29T10:32:24.397Z,4.20
2023-01-29T10:35:14.433Z,3.67
2023-01-29T10:37:43.321Z,3.70
2023-01-29T10:40:24.950Z,3.80
2023-01-29T10:42:52.823Z,3.90
2023-01-29T10:45:26.234Z,3.87
2023-01-29T10:48:19.269Z,3.70
2023-01-29T10:51:19.409Z,4.10
2023-01-29T10:53:54.372Z,3.67
2023-01-29T10:56:35.261Z,4.10
2023-01-29T10:59:24.205Z,3.87
2023-01-29T11:01:51.773Z,3.63
2023-01-29T11:04:19.417Z,3.63
2023-01-29T11:06:46.826Z,4.50
2023-01-29T11:12:17.015Z,4.70
2023-01-29T11:14:52.120Z,5.53
2023-01-29T11:17:20.968Z,4.60
2023-01-29T11:19:50.193Z,5.77
2023-01-29T11:22:20.481Z,5.33
2023-01-29T11:25:07.740Z,5.37
2023-01-29T11:27:43.432Z,3.97
2023-01-29T11:30:31.229Z,5.03
2023-01-29T11:33:18.820Z,4.60
2023-01-29T11:35:46.428Z,4.63
2023-01-29T11:38:16.823Z,4.63
2023-01-29T11:40:44.442Z,4.50
2023-01-29T11:43:28.444Z,4.50
2023-01-29T11:46:01.439Z,4.73
2023-01-29T11:48:59.403Z,5.03
2023-01-29T11:51:33.237Z,4.90
2023-01-29T11:54:02.450Z,4.93
2023-01-29T11:56:33.493Z,4.50
2023-01-29T11:59:02.640Z,5.43
2023-01-29T12:01:40.081Z,5.00
2023-01-29T12:04:27.643Z,3.67
2023-01-29T12:06:55.180Z,4.47
2023-01-29T12:09:28.448Z,4.90
2023-01-29T12:11:56.088Z,4.60
2023-01-29T12:14:34.280Z,5.00
2023-01-29T12:17:07.117Z,3.80
2023-01-29T12:19:44.591Z,4.37
2023-01-29T12:22:18.269Z,4.50
2023-01-29T12:24:56.419Z,4.30
2023-01-29T12:27:34.782Z,4.30
2023-01-29T12:30:02.117Z,3.40
2023-01-29T12:33:00.364Z,4.70
2023-01-29T12:35:38.673Z,4.53
2023-01-29T12:38:10.988Z,4.87
2023-01-29T12:41:03.870Z,5.03
2023-01-29T12:43:54.896Z,4.13
2023-01-29T12:46:32.769Z,4.57
2023-01-29T12:49:02.216Z,4.03
2023-01-29T12:51:39.255Z,8.40
2023-01-29T12:54:32.007Z,4.77
2023-01-29T12:57:01.461Z,4.33
2023-01-29T12:59:46.456Z,4.13
2023-01-29T13:02:40.200Z,4.57
2023-01-29T13:05:31.504Z,4.30
2023-01-29T13:08:04.146Z,4.70
2023-01-29T13:10:36.130Z,4.73
2023-01-29T13:13:13.639Z,4.80
2023-01-29T13:15:42.607Z,4.40
2023-01-29T13:18:42.807Z,5.07
2023-01-29T13:21:20.783Z,4.47
2023-01-29T13:23:52.873Z,5.87
2023-01-29T13:26:20.743Z,5.50
2023-01-29T13:28:48.280Z,5.10
2023-01-29T13:31:28.050Z,4.80
2023-01-29T13:34:01.882Z,4.73
2023-01-29T13:36:30.416Z,4.63
2023-01-29T13:39:01.811Z,4.70
2023-01-29T13:41:34.017Z,5.70
2023-01-29T13:44:01.307Z,5.60
2023-01-29T13:46:30.185Z,5.43
2023-01-29T13:49:01.231Z,5.07
2023-01-29T13:51:34.223Z,5.90
2023-01-29T13:54:04.107Z,5.50
2023-01-29T13:56:34.468Z,5.57
2023-01-29T13:59:05.781Z,5.20
2023-01-29T14:01:48.792Z,5.93
2023-01-29T14:04:27.009Z,5.53
2023-01-29T14:06:59.057Z,6.40
2023-01-29T14:09:38.875Z,5.40
2023-01-29T14:12:26.126Z,5.53
2023-01-29T14:14:59.787Z,5.83
2023-01-29T14:17:27.155Z,5.10
2023-01-29T14:20:03.661Z,6.00
2023-01-29T14:22:32.644Z,5.30
2023-01-29T14:25:05.684Z,6.13
2023-01-29T14:27:33.375Z,7.37
2023-01-29T14:30:03.730Z,6.23
2023-01-29T14:32:31.321Z,7.23
2023-01-29T14:35:01.589Z,5.70
2023-01-29T14:37:33.383Z,6.73
2023-01-29T14:40:13.082Z,5.97
2023-01-29T14:42:46.354Z,7.47
2023-01-29T14:45:30.861Z,7.60
2023-01-29T14:48:00.681Z,6.67
2023-01-29T14:50:35.023Z,8.40
2023-01-29T14:53:15.521Z,6.63
2023-01-29T14:55:48.910Z,7.60
2023-01-29T14:58:34.905Z,7.47
2023-01-29T15:01:02.775Z,12.93
2023-01-29T15:03:36.649Z,7.47
2023-01-29T15:06:05.619Z,6.53
2023-01-29T15:08:49.974Z,8.60
2023-01-29T15:11:36.951Z,7.37
2023-01-29T15:14:18.665Z,8.87
2023-01-29T15:17:23.249Z,9.20
2023-01-29T15:19:50.864Z,13.57
2023-01-29T15:22:22.605Z,9.43
2023-01-29T15:25:19.674Z,8.50
2023-01-29T15:27:47.405Z,6.83
2023-01-29T15:30:32.775Z,7.37
2023-01-29T15:33:00.128Z,6.13
2023-01-29T15:35:46.295Z,7.20
2023-01-29T15:38:19.260Z,10.23
2023-01-29T15:40:54.364Z,8.30
2023-01-29T15:43:26.709Z,10.30
2023-01-29T15:45:56.124Z,8.00
2023-01-29T15:48:36.137Z,11.00
2023-01-29T15:51:05.685Z,12.83
2023-01-29T15:53:43.422Z,7.40
2023-01-29T15:56:11.777Z,6.57
2023-01-29T15:58:39.165Z,10.10
2023-01-29T16:01:07.517Z,12.40
2023-01-29T16:03:35.029Z,8.07
2023-01-29T16:06:02.429Z,10.13
2023-01-29T16:08:29.883Z,10.97
2023-01-29T16:11:00.428Z,19.93
2023-01-29T16:13:35.786Z,9.63
2023-01-29T16:16:08.850Z,9.80
2023-01-29T16:18:39.479Z,7.73
2023-01-29T16:21:15.170Z,7.30
2023-01-29T16:24:10.181Z,10.17
2023-01-29T16:26:44.365Z,13.90
2023-01-29T16:29:18.053Z,9.07
2023-01-29T16:31:46.101Z,8.13
2023-01-29T16:34:35.942Z,8.10
2023-01-29T16:37:05.582Z,10.97
2023-01-29T16:39:38.479Z,10.57
2023-01-29T16:42:18.832Z,8.53
2023-01-29T16:45:06.988Z,9.47
2023-01-29T16:47:36.319Z,9.03
2023-01-29T16:50:43.293Z,10.03
2023-01-29T16:53:22.213Z,14.97
2023-01-29T16:55:50.111Z,8.67
2023-01-29T16:58:21.922Z,14.13
2023-01-29T17:00:53.604Z,15.13
2023-01-29T17:03:21.139Z,10.67
2023-01-29T17:05:48.572Z,10.63
2023-01-29T17:08:36.492Z,11.87
2023-01-29T17:11:04.003Z,10.87
2023-01-29T17:13:39.428Z,11.03
2023-01-29T17:16:33.813Z,11.40
2023-01-29T17:19:01.668Z,12.87
2023-01-29T17:21:32.288Z,10.37
2023-01-29T17:23:59.785Z,11.53
2023-01-29T17:26:27.287Z,9.23
2023-01-29T17:28:55.631Z,10.83
2023-01-29T17:31:23.124Z,13.27
2023-01-29T17:33:50.701Z,11.83
2023-01-29T17:36:18.145Z,12.77
2023-01-29T17:38:46.084Z,18.90
2023-01-29T17:41:23.572Z,26.90
2023-01-29T17:43:50.853Z,18.60
2023-01-29T17:46:18.514Z,14.20
2023-01-29T17:48:46.543Z,19.07
2023-01-29T17:51:17.488Z,17.97
2023-01-29T17:53:46.680Z,23.40
2023-01-29T17:56:19.626Z,19.33
2023-01-29T17:58:47.062Z,17.13
2023-01-29T18:01:14.475Z,14.97
2023-01-29T18:03:42.033Z,16.93
2023-01-29T18:06:09.645Z,14.60
2023-01-29T18:08:37.899Z,16.03
2023-01-29T18:11:05.544Z,12.33
2023-01-29T18:13:32.898Z,16.53
2023-01-29T18:16:00.317Z,14.57
2023-01-29T18:18:27.780Z,17.37
2023-01-29T18:20:55.246Z,17.27
2023-01-29T18:23:22.689Z,15.83
2023-01-29T18:25:50.143Z,19.50
2023-01-29T18:28:18.137Z,19.87
2023-01-29T18:30:47.727Z,16.40
2023-01-29T18:33:15.839Z,18.80
2023-01-29T18:35:48.346Z,27.63
2023-01-29T18:38:16.068Z,15.07
2023-01-29T18:40:43.793Z,13.33
2023-01-29T18:43:11.282Z,11.47
2023-01-29T18:45:38.725Z,13.13
2023-01-29T18:48:06.443Z,14.83
2023-01-29T18:50:33.929Z,16.80
2023-01-29T18:53:01.326Z,16.73
2023-01-29T18:55:28.937Z,13.83
2023-01-29T18:58:28.960Z,13.77
2023-01-29T19:00:45.190Z,13.87
2023-01-29T19:03:12.626Z,11.93
2023-01-29T19:05:39.966Z,12.70
2023-01-29T19:08:07.400Z,13.53
2023-01-29T19:10:34.794Z,14.00
2023-01-29T19:13:02.243Z,14.43
2023-01-29T19:15:29.929Z,11.70
2023-01-29T19:17:57.285Z,12.97
2023-01-29T19:20:24.973Z,12.73
2023-01-29T19:22:52.377Z,11.43
2023-01-29T19:25:20.134Z,12.30
2023-01-29T19:27:47.998Z,11.40
2023-01-29T19:30:15.697Z,11.97
2023-01-29T19:32:43.030Z,10.97
2023-01-29T19:35:10.550Z,12.33
2023-01-29T19:37:37.927Z,12.50
2023-01-29T19:40:05.920Z,11.63
2023-01-29T19:42:33.399Z,12.13
2023-01-29T19:45:00.861Z,12.90
2023-01-29T19:47:28.357Z,11.13
2023-01-29T19:49:55.828Z,10.93
2023-01-29T19:52:50.377Z,11.97
2023-01-29T19:55:19.619Z,10.93
2023-01-29T19:57:47.766Z,11.53
2023-01-29T20:00:17.683Z,11.17
2023-01-29T20:02:45.193Z,11.70
2023-01-29T20:05:13.557Z,11.67
2023-01-29T20:07:42.884Z,11.53
2023-01-29T20:10:15.466Z,9.30
2023-01-29T20:12:46.851Z,10.57
2023-01-29T20:15:14.970Z,11.27
2023-01-29T20:17:42.391Z,11.80
2023-01-29T20:20:10.888Z,10.60
2023-01-29T20:22:38.344Z,10.27
2023-01-29T20:25:06.372Z,9.67
2023-01-29T20:27:33.704Z,11.23
2023-01-29T20:30:01.176Z,12.00
2023-01-29T20:32:28.463Z,11.00
2023-01-29T20:34:55.887Z,11.50
2023-01-29T20:37:23.581Z,11.47
2023-01-29T20:39:51.252Z,11.73
2023-01-29T20:42:18.709Z,11.77
2023-01-29T20:44:46.148Z,11.60
2023-01-29T20:47:13.971Z,12.07
2023-01-29T20:49:41.331Z,11.63
2023-01-29T20:52:09.002Z,10.93
2023-01-29T20:54:36.648Z,11.20
2023-01-29T20:57:04.581Z,12.03
2023-01-29T20:59:32.770Z,11.43
2023-01-29T21:02:00.114Z,9.70
2023-01-29T21:04:27.610Z,11.50
2023-01-29T21:06:55.152Z,11.83
2023-01-29T21:09:22.527Z,11.03
2023-01-29T21:11:50.166Z,11.20
2023-01-29T21:14:17.779Z,10.37
2023-01-29T21:16:45.207Z,12.17
2023-01-29T21:19:15.376Z,12.10
2023-01-29T21:21:42.760Z,11.53
2023-01-29T21:24:12.244Z,11.37
2023-01-29T21:26:39.628Z,10.57
2023-01-29T21:29:07.364Z,12.30
2023-01-29T21:31:34.921Z,11.70
2023-01-29T21:34:02.626Z,11.90
2023-01-29T21:36:30.109Z,11.40
2023-01-29T21:38:57.439Z,12.50
2023-01-29T21:41:44.809Z,11.40
2023-01-29T21:44:12.621Z,12.97
2023-01-29T21:46:40.039Z,12.10
2023-01-29T21:49:08.068Z,12.77
2023-01-29T21:51:35.662Z,16.13
2023-01-29T21:54:03.786Z,14.70
2023-01-29T21:56:31.285Z,16.30
2023-01-29T21:59:01.257Z,17.87
2023-01-29T22:01:38.101Z,14.03
2023-01-29T22:04:08.530Z,12.67
2023-01-29T22:06:35.804Z,15.37
2023-01-29T22:09:03.258Z,15.67
2023-01-29T22:11:30.802Z,13.83
2023-01-29T22:13:58.161Z,16.40
2023-01-29T22:16:25.442Z,14.33
2023-01-29T22:18:52.794Z,16.97
2023-01-29T22:21:20.213Z,18.90
2023-01-29T22:23:49.385Z,14.83
2023-01-29T22:26:16.779Z,13.73
2023-01-29T22:28:44.148Z,13.97
2023-01-29T22:31:11.818Z,15.47
2023-01-29T22:33:39.178Z,12.83
2023-01-29T22:36:06.980Z,11.10
2023-01-29T22:38:34.571Z,15.90
2023-01-29T22:41:01.940Z,15.47
2023-01-29T22:43:32.210Z,12.80
2023-01-29T22:45:59.980Z,17.33
2023-01-29T22:48:29.294Z,18.47
2023-01-29T22:51:13.267Z,15.73
2023-01-29T22:53:41.863Z,14.53
2023-01-29T22:56:09.509Z,13.23
2023-01-29T22:58:37.027Z,17.20
2023-01-29T23:01:04.858Z,15.03
2023-01-29T23:03:32.228Z,18.87
2023-01-29T23:05:59.583Z,16.17
2023-01-29T23:08:27.398Z,23.27
2023-01-29T23:10:54.738Z,20.80
2023-01-29T23:13:22.092Z,19.37
2023-01-29T23:15:59.515Z,15.33
2023-01-29T23:18:26.819Z,16.97
2023-01-29T23:20:58.059Z,15.17
2023-01-29T23:23:25.507Z,18.83
2023-01-29T23:26:19.743Z,14.03
2023-01-29T23:28:47.424Z,19.30
2023-01-29T23:31:15.255Z,22.33
2023-01-29T23:33:42.801Z,14.53
2023-01-29T23:36:10.348Z,17.17
2023-01-29T23:38:37.653Z,13.87
2023-01-29T23:41:05.025Z,14.93
2023-01-29T23:43:32.526Z,13.30
2023-01-29T23:45:59.838Z,14.97
2023-01-29T23:48:27.132Z,18.07
2023-01-29T23:50:54.629Z,15.60
2023-01-29T23:53:22.145Z,12.83
2023-01-29T23:56:03.127Z,13.57
2023-01-29T23:58:30.855Z,14.20
